Time;durP1;ratioP1;P1;durP2;ratioP2;P2;SDS_P1;SDS_P2;PMS_P1;PMS_P2;Temp;Humidity;BMP_temperature;BMP_pressure;BME280_temperature;BME280_humidity;BME280_pressure;Samples;Min_cycle;Max_cycle;Signal;HPM_P1;HPM_P2
2021/05/08 00:01:37;;;;;;;48.58;46.08;;;20.50;99.90;;;;;;5076598;28;20033;-51
2021/05/08 00:04:05;;;;;;;47.55;45.05;;;20.60;99.90;;;;;;5076398;28;20062;-54
2021/05/08 00:06:34;;;;;;;43.90;41.42;;;20.80;99.90;;;;;;5076531;28;20031;-54
2021/05/08 00:09:10;;;;;;;42.33;40.10;;;20.80;99.90;;;;;;5076494;28;20013;-55
2021/05/08 00:11:39;;;;;;;44.00;41.60;;;21.00;99.90;;;;;;5076520;28;20024;-54
2021/05/08 00:14:07;;;;;;;42.83;40.53;;;21.10;99.90;;;;;;5076417;28;20133;-54
2021/05/08 00:16:35;;;;;;;42.97;40.67;;;21.30;99.90;;;;;;5074836;28;20025;-52
2021/05/08 00:19:02;;;;;;;38.20;36.10;;;21.30;99.90;;;;;;5076291;28;20493;-53
2021/05/08 00:21:30;;;;;;;38.90;36.90;;;21.50;99.90;;;;;;5076264;28;20032;-54
2021/05/08 00:23:57;;;;;;;40.47;38.25;;;21.70;99.90;;;;;;5076159;28;20029;-54
2021/05/08 00:26:25;;;;;;;36.25;34.25;;;22.00;99.90;;;;;;5076163;28;20027;-53
2021/05/08 00:28:52;;;;;;;34.42;32.55;;;22.00;99.90;;;;;;5076095;28;20024;-56
2021/05/08 00:31:20;;;;;;;31.33;29.55;;;22.10;99.90;;;;;;5075817;28;20050;-55
2021/05/08 00:33:47;;;;;;;33.45;31.65;;;22.10;99.90;;;;;;5075968;28;20025;-56
2021/05/08 00:36:15;;;;;;;30.50;28.85;;;22.30;99.90;;;;;;5075961;28;20024;-50
2021/05/08 00:38:42;;;;;;;29.83;28.23;;;22.40;99.90;;;;;;5075832;28;20056;-52
2021/05/08 00:41:10;;;;;;;34.10;30.70;;;22.40;99.90;;;;;;5075533;28;20106;-53
2021/05/08 00:43:37;;;;;;;25.92;24.42;;;22.60;99.90;;;;;;5075784;28;20358;-54
2021/05/08 00:46:05;;;;;;;24.23;23.02;;;22.70;99.90;;;;;;5075723;28;20024;-51
2021/05/08 00:48:33;;;;;;;22.77;21.65;;;22.70;99.90;;;;;;5075737;28;20031;-52
2021/05/08 00:51:00;;;;;;;22.00;20.80;;;22.80;99.90;;;;;;5075628;28;20020;-52
2021/05/08 00:53:27;;;;;;;20.25;19.10;;;23.00;99.90;;;;;;5075696;28;20044;-51
2021/05/08 00:55:55;;;;;;;20.20;19.13;;;23.10;99.90;;;;;;5075731;28;20025;-56
2021/05/08 00:58:22;;;;;;;18.70;17.80;;;23.40;99.90;;;;;;5075620;28;20477;-55
2021/05/08 01:00:55;;;;;;;17.98;16.98;;;23.70;99.90;;;;;;5075402;28;20056;-53
2021/05/08 01:03:23;;;;;;;17.60;16.70;;;24.00;99.90;;;;;;5075462;28;20035;-53
2021/05/08 01:05:51;;;;;;;15.20;14.50;;;24.00;99.90;;;;;;5075462;28;20027;-54
2021/05/08 01:08:24;;;;;;;14.65;13.85;;;23.80;99.90;;;;;;5074962;28;20036;-53
2021/05/08 01:10:52;;;;;;;14.98;14.02;;;23.70;99.90;;;;;;5075067;28;20484;-51
2021/05/08 01:13:20;;;;;;;15.30;14.60;;;23.90;99.90;;;;;;5075162;28;20035;-54
2021/05/08 01:15:48;;;;;;;15.60;14.80;;;24.00;99.90;;;;;;5075176;28;20043;-53
2021/05/08 01:18:15;;;;;;;14.60;14.00;;;24.10;99.90;;;;;;5075208;28;20068;-49
2021/05/08 01:20:43;;;;;;;13.30;12.30;;;24.00;99.90;;;;;;5074966;28;20025;-50
2021/05/08 01:23:11;;;;;;;14.00;13.27;;;23.90;99.90;;;;;;5074995;28;20028;-53
2021/05/08 01:25:38;;;;;;;12.95;12.10;;;23.70;99.90;;;;;;5074834;28;20037;-52
2021/05/08 01:28:05;;;;;;;11.43;10.82;;;23.90;99.90;;;;;;5074971;28;20017;-51
2021/05/08 01:30:35;;;;;;;10.35;9.85;;;23.90;99.90;;;;;;5073556;28;20059;-52
2021/05/08 01:33:04;;;;;;;10.80;10.20;;;23.80;99.90;;;;;;5074816;28;20028;-49
2021/05/08 01:35:32;;;;;;;10.77;10.27;;;23.70;99.90;;;;;;5074877;28;20499;-48
2021/05/08 01:38:00;;;;;;;10.60;10.00;;;23.80;99.90;;;;;;5073487;28;20017;-51
2021/05/08 01:40:35;;;;;;;9.52;9.05;;;23.90;99.90;;;;;;5074485;28;20040;-47
2021/05/08 01:43:02;;;;;;;7.63;7.22;;;23.90;99.90;;;;;;5074697;28;20036;-53
2021/05/08 01:45:30;;;;;;;7.15;6.75;;;23.80;99.90;;;;;;5074585;28;20044;-50
2021/05/08 01:47:59;;;;;;;6.35;6.05;;;23.80;99.90;;;;;;5074645;28;20021;-53
2021/05/08 01:50:27;;;;;;;7.53;6.93;;;23.90;99.90;;;;;;5074512;28;20029;-54
2021/05/08 01:52:55;;;;;;;8.32;7.63;;;23.90;99.90;;;;;;5074397;28;20250;-52
2021/05/08 01:55:24;;;;;;;7.50;7.10;;;24.00;99.90;;;;;;5074276;28;20105;-51
2021/05/08 01:57:55;;;;;;;7.45;7.05;;;24.00;99.90;;;;;;5074347;28;20388;-49
2021/05/08 02:00:43;;;;;;;8.10;7.50;;;24.00;99.90;;;;;;5074280;28;20021;-51
2021/05/08 02:03:12;;;;;;;7.40;6.65;;;23.90;99.90;;;;;;5074219;28;20032;-50
2021/05/08 02:05:40;;;;;;;6.40;6.00;;;23.70;99.90;;;;;;5074497;28;20047;-51
2021/05/08 02:08:10;;;;;;;6.72;6.10;;;23.60;99.90;;;;;;5073980;28;20037;-51
2021/05/08 02:10:43;;;;;;;6.65;6.00;;;23.50;99.90;;;;;;5072784;28;20095;-50
2021/05/08 02:13:11;;;;;;;5.63;5.30;;;23.50;99.90;;;;;;5074218;28;20025;-50
2021/05/08 02:15:39;;;;;;;5.78;5.20;;;23.50;99.90;;;;;;5073936;28;20016;-48
2021/05/08 02:18:07;;;;;;;6.10;5.50;;;23.40;99.90;;;;;;5074001;28;20546;-52
2021/05/08 02:20:37;;;;;;;5.68;5.30;;;23.40;99.90;;;;;;5072837;28;20489;-50
2021/05/08 02:23:09;;;;;;;5.82;5.38;;;23.40;99.90;;;;;;5073873;28;20020;-50
2021/05/08 02:25:37;;;;;;;6.15;5.75;;;23.40;99.90;;;;;;5074024;28;20462;-51
2021/05/08 02:28:05;;;;;;;6.30;5.80;;;23.40;99.90;;;;;;5073615;28;20114;-53
2021/05/08 02:30:35;;;;;;;5.57;5.28;;;23.90;99.90;;;;;;5073805;28;20020;-50
2021/05/08 02:33:03;;;;;;;5.55;5.15;;;24.20;99.90;;;;;;5073752;28;20392;-50
2021/05/08 02:35:32;;;;;;;5.57;5.18;;;24.40;99.90;;;;;;5073684;28;20028;-51
2021/05/08 02:37:59;;;;;;;5.38;5.07;;;24.40;99.90;;;;;;5073562;28;20027;-51
2021/05/08 02:40:32;;;;;;;4.85;4.55;;;24.40;99.90;;;;;;5073348;28;20056;-48
2021/05/08 02:42:59;;;;;;;5.25;4.90;;;24.40;99.90;;;;;;5073665;28;20048;-47
2021/05/08 02:45:27;;;;;;;5.35;4.82;;;24.70;99.90;;;;;;5073495;28;20025;-51
2021/05/08 02:47:54;;;;;;;4.97;4.63;;;25.10;99.90;;;;;;5073355;28;20016;-54
2021/05/08 02:50:23;;;;;;;5.22;4.80;;;25.00;99.10;;;;;;5073385;28;20077;-52
2021/05/08 02:52:51;;;;;;;4.28;3.97;;;24.90;98.80;;;;;;5073380;28;20477;-51
2021/05/08 02:55:18;;;;;;;4.68;4.38;;;24.70;99.90;;;;;;5073276;28;20024;-51
2021/05/08 02:57:45;;;;;;;4.47;4.20;;;24.90;99.90;;;;;;5073215;28;20020;-48
2021/05/08 03:00:16;;;;;;;4.50;4.20;;;24.80;99.90;;;;;;5073162;28;20025;-48
2021/05/08 03:02:44;;;;;;;4.72;4.45;;;24.90;99.90;;;;;;5072970;28;20020;-50
2021/05/08 03:05:12;;;;;;;5.60;5.30;;;24.60;99.60;;;;;;5071933;28;20387;-49
2021/05/08 03:07:40;;;;;;;5.05;4.70;;;24.30;99.80;;;;;;5073080;28;20020;-45
2021/05/08 03:10:08;;;;;;;5.00;4.70;;;24.50;99.90;;;;;;5073078;28;20376;-51
2021/05/08 03:12:36;;;;;;;5.07;4.78;;;24.50;99.60;;;;;;5072975;28;20021;-51
2021/05/08 03:15:06;;;;;;;5.45;5.05;;;24.50;99.90;;;;;;5072703;28;20020;-53
2021/05/08 03:17:33;;;;;;;5.20;4.80;;;24.50;99.90;;;;;;5072888;28;20488;-53
2021/05/08 03:20:01;;;;;;;5.13;4.72;;;24.30;99.90;;;;;;5072814;28;20447;-52
2021/05/08 03:22:28;;;;;;;5.03;4.70;;;23.90;99.90;;;;;;5072755;28;20473;-52
2021/05/08 03:24:56;;;;;;;4.60;4.30;;;23.90;99.90;;;;;;5072728;28;20035;-53
2021/05/08 03:27:23;;;;;;;4.90;4.60;;;24.10;99.90;;;;;;5072650;28;20412;-52
2021/05/08 03:29:50;;;;;;;4.63;4.32;;;24.50;99.90;;;;;;5072748;28;20021;-48
2021/05/08 03:32:21;;;;;;;5.20;4.70;;;24.80;99.90;;;;;;5071015;28;20082;-50
2021/05/08 03:34:48;;;;;;;;;;;24.90;99.90;;;;;;5073216;28;20358;-49
2021/05/08 03:37:15;;;;;;;5.40;5.00;;;25.10;99.90;;;;;;5072721;28;20071;-47
2021/05/08 03:39:42;;;;;;;5.30;5.00;;;25.40;99.90;;;;;;5072241;28;20021;-50
2021/05/08 03:42:12;;;;;;;5.10;4.73;;;25.50;99.90;;;;;;5071078;28;20512;-52
2021/05/08 03:44:39;;;;;;;5.55;5.25;;;25.30;99.90;;;;;;5072463;28;20336;-51
2021/05/08 03:47:09;;;;;;;4.97;4.68;;;25.50;99.90;;;;;;5072563;28;20028;-50
2021/05/08 03:49:40;;;;;;;5.20;4.90;;;25.50;99.90;;;;;;5072507;28;20049;-51
2021/05/08 03:52:07;;;;;;;5.55;5.25;;;25.30;99.90;;;;;;5072438;28;20112;-54
2021/05/08 03:54:36;;;;;;;6.30;5.90;;;25.30;99.90;;;;;;5072428;28;20025;-49
2021/05/08 03:57:05;;;;;;;6.20;5.90;;;25.40;99.90;;;;;;5072416;28;20500;-48
2021/05/08 03:59:33;;;;;;;6.13;5.72;;;25.40;99.90;;;;;;5072448;28;20031;-49
2021/05/08 04:02:00;;;;;;;6.00;5.70;;;25.40;99.90;;;;;;5072426;28;20025;-48
2021/05/08 04:04:28;;;;;;;5.90;5.60;;;25.40;98.80;;;;;;5072345;28;20020;-48
2021/05/08 04:06:56;;;;;;;5.78;5.30;;;25.30;99.90;;;;;;5072399;28;20114;-51
2021/05/08 04:09:23;;;;;;;5.57;5.28;;;25.30;99.70;;;;;;5072351;28;20031;-51
2021/05/08 04:11:51;;;;;;;5.47;5.07;;;25.20;99.50;;;;;;5072266;28;20033;-53
2021/05/08 04:14:18;;;;;;;5.18;4.90;;;25.00;99.90;;;;;;5072300;28;20071;-51
2021/05/08 04:16:46;;;;;;;5.40;5.00;;;24.80;99.20;;;;;;5070952;28;20024;-51
2021/05/08 04:19:14;;;;;;;5.93;5.53;;;24.60;99.90;;;;;;5072312;28;20020;-49
2021/05/08 04:21:41;;;;;;;5.60;5.20;;;24.40;99.90;;;;;;5072170;28;20025;-49
2021/05/08 04:24:09;;;;;;;5.78;5.38;;;24.20;99.90;;;;;;5072337;28;20017;-47
2021/05/08 04:26:36;;;;;;;6.70;6.00;;;24.10;99.90;;;;;;5071028;28;20054;-49
2021/05/08 04:29:04;;;;;;;5.88;5.47;;;24.20;99.90;;;;;;5072182;28;20429;-49
2021/05/08 04:31:33;;;;;;;6.07;5.68;;;24.40;99.90;;;;;;5072143;28;20107;-47
2021/05/08 04:34:01;;;;;;;5.55;5.05;;;24.40;99.90;;;;;;5071869;28;20032;-48
2021/05/08 04:36:28;;;;;;;6.25;5.75;;;24.40;99.90;;;;;;5070724;28;20480;-49
2021/05/08 04:38:55;;;;;;;5.50;5.00;;;24.40;99.90;;;;;;5072042;28;20484;-49
2021/05/08 04:41:23;;;;;;;5.85;5.45;;;24.30;99.90;;;;;;5071853;28;20468;-46
2021/05/08 04:43:50;;;;;;;6.30;5.80;;;24.20;99.90;;;;;;5072570;28;20361;-52
2021/05/08 04:46:18;;;;;;;5.63;5.20;;;24.20;99.90;;;;;;5075833;28;20024;-50
2021/05/08 04:48:45;;;;;;;5.60;5.30;;;24.20;99.90;;;;;;5075739;28;20031;-46
2021/05/08 04:51:13;;;;;;;5.68;5.18;;;24.20;99.90;;;;;;5075600;28;20365;-48
2021/05/08 04:53:40;;;;;;;5.63;5.13;;;24.20;99.90;;;;;;5075549;28;20043;-50
2021/05/08 04:56:07;;;;;;;5.82;5.53;;;24.20;99.90;;;;;;5075435;28;20020;-50
2021/05/08 04:58:35;;;;;;;6.43;5.40;;;24.20;99.90;;;;;;5075296;28;20094;-52
2021/05/08 05:01:02;;;;;;;5.85;4.72;;;24.50;99.90;;;;;;5075270;28;20454;-52
2021/05/08 05:03:29;;;;;;;5.10;4.72;;;24.80;99.90;;;;;;5075226;28;20070;-51
2021/05/08 05:05:57;;;;;;;5.28;4.80;;;24.80;99.90;;;;;;5074011;28;20021;-50
2021/05/08 05:08:25;;;;;;;5.97;5.57;;;24.70;99.90;;;;;;5075239;28;20025;-45
2021/05/08 05:10:55;;;;;;;6.10;5.70;;;24.60;99.90;;;;;;5075169;28;20075;-51
2021/05/08 05:13:24;;;;;;;6.00;5.70;;;24.50;99.90;;;;;;5075402;28;20020;-48
2021/05/08 05:15:52;;;;;;;5.93;5.43;;;24.40;99.90;;;;;;5074100;28;20037;-46
2021/05/08 05:18:19;;;;;;;5.43;5.20;;;24.40;99.90;;;;;;5075080;28;20028;-47
2021/05/08 05:20:47;;;;;;;5.88;5.57;;;24.40;99.90;;;;;;5075050;28;20469;-48
2021/05/08 05:23:14;;;;;;;5.90;5.60;;;24.30;99.90;;;;;;5074962;28;20464;-52
2021/05/08 05:25:42;;;;;;;5.97;5.57;;;24.20;99.90;;;;;;5074888;28;20100;-49
2021/05/08 05:28:24;;;;;;;6.22;5.75;;;24.20;99.90;;;;;;5073660;28;20397;-50
2021/05/08 05:30:51;;;;;;;6.82;6.32;;;24.10;99.90;;;;;;5074916;28;20410;-49
2021/05/08 05:33:20;;;;;;;6.28;5.80;;;24.20;99.90;;;;;;5074918;28;20017;-47
2021/05/08 05:35:54;;;;;;;7.68;7.00;;;24.10;99.90;;;;;;5074833;28;20139;-46
2021/05/08 05:38:25;;;;;;;11.27;10.27;;;24.20;99.90;;;;;;5073350;28;20024;-47
2021/05/08 05:40:54;;;;;;;7.80;7.20;;;24.20;99.90;;;;;;5074497;28;20523;-51
2021/05/08 05:43:22;;;;;;;14.10;13.00;;;24.20;99.90;;;;;;5074709;28;20048;-51
2021/05/08 05:45:50;;;;;;;6.38;6.00;;;24.10;99.90;;;;;;5074644;28;20066;-48
2021/05/08 05:48:17;;;;;;;5.72;5.43;;;24.10;99.90;;;;;;5074492;28;20519;-49
2021/05/08 05:50:45;;;;;;;8.57;7.90;;;24.00;99.90;;;;;;5074437;28;20020;-54
2021/05/08 05:53:13;;;;;;;7.32;6.90;;;24.00;99.90;;;;;;5074459;28;20104;-53
2021/05/08 05:55:40;;;;;;;6.93;6.53;;;23.90;99.90;;;;;;5074255;28;20028;-53
2021/05/08 05:58:08;;;;;;;6.78;6.30;;;23.90;99.90;;;;;;5074351;28;20472;-54
2021/05/08 06:00:35;;;;;;;6.65;6.25;;;23.70;99.90;;;;;;5074289;28;20021;-52
2021/05/08 06:03:02;;;;;;;6.35;5.95;;;23.70;99.90;;;;;;5074527;28;20027;-51
2021/05/08 06:05:30;;;;;;;6.80;6.40;;;23.70;99.90;;;;;;5074311;28;20434;-48
2021/05/08 06:07:57;;;;;;;6.90;6.50;;;23.60;99.90;;;;;;5074203;28;20025;-48
2021/05/08 06:10:24;;;;;;;7.63;7.22;;;23.60;99.90;;;;;;5074165;28;20028;-51
2021/05/08 06:12:52;;;;;;;8.02;7.57;;;23.40;99.90;;;;;;5074150;28;20384;-54
2021/05/08 06:15:19;;;;;;;8.20;7.70;;;23.30;99.90;;;;;;5073993;28;20024;-52
2021/05/08 06:17:47;;;;;;;9.20;8.45;;;23.30;99.90;;;;;;5072592;28;20395;-50
2021/05/08 06:20:15;;;;;;;8.07;7.47;;;23.20;99.90;;;;;;5073919;28;20024;-49
2021/05/08 06:22:42;;;;;;;7.85;7.40;;;23.20;99.90;;;;;;5073574;28;20388;-48
2021/05/08 06:25:10;;;;;;;9.10;8.55;;;23.00;99.90;;;;;;5073774;28;20020;-48
2021/05/08 06:27:37;;;;;;;9.10;8.50;;;23.00;99.90;;;;;;5073878;28;20111;-51
2021/05/08 06:30:05;;;;;;;8.73;8.30;;;22.90;99.90;;;;;;5073654;28;20020;-49
2021/05/08 06:32:33;;;;;;;8.88;8.27;;;22.80;99.90;;;;;;5073700;28;20127;-50
2021/05/08 06:35:00;;;;;;;8.70;8.20;;;22.70;99.90;;;;;;5073532;28;20495;-50
2021/05/08 06:37:27;;;;;;;8.95;8.48;;;22.50;99.90;;;;;;5073595;28;20028;-51
2021/05/08 06:39:56;;;;;;;9.88;9.23;;;22.40;99.90;;;;;;5073370;28;20039;-50
2021/05/08 06:42:23;;;;;;;8.63;8.05;;;22.30;99.90;;;;;;5073500;28;20031;-54
2021/05/08 06:44:51;;;;;;;7.68;7.18;;;22.20;99.90;;;;;;5073474;28;20020;-51
2021/05/08 06:47:18;;;;;;;7.75;7.00;;;22.20;99.90;;;;;;5073341;28;20016;-49
2021/05/08 06:49:46;;;;;;;8.27;7.78;;;22.20;99.90;;;;;;5073291;28;20036;-47
2021/05/08 06:52:13;;;;;;;7.32;6.82;;;22.10;99.90;;;;;;5073241;28;20086;-48
2021/05/08 06:54:40;;;;;;;7.35;6.80;;;22.10;99.90;;;;;;5073089;28;20025;-53
2021/05/08 06:57:08;;;;;;;6.15;5.85;;;22.10;99.90;;;;;;5073288;28;20380;-51
2021/05/08 06:59:35;;;;;;;6.35;5.85;;;22.00;99.90;;;;;;5073219;28;20077;-52
2021/05/08 07:02:04;;;;;;;6.30;5.90;;;22.00;99.90;;;;;;5072966;28;20031;-53
2021/05/08 07:04:32;;;;;;;5.93;5.55;;;21.90;99.90;;;;;;5072927;28;20028;-50
2021/05/08 07:07:00;;;;;;;5.63;5.10;;;21.80;99.90;;;;;;5072407;28;20021;-53
2021/05/08 07:09:27;;;;;;;5.32;4.82;;;21.80;99.90;;;;;;5071682;28;20020;-49
2021/05/08 07:11:55;;;;;;;4.43;4.13;;;21.80;99.90;;;;;;5072811;28;20435;-49
2021/05/08 07:14:22;;;;;;;4.80;4.50;;;21.60;99.80;;;;;;5072751;28;20090;-51
2021/05/08 07:16:49;;;;;;;4.65;4.45;;;21.70;98.00;;;;;;5072735;28;20025;-48
2021/05/08 07:19:17;;;;;;;4.80;4.53;;;21.70;98.10;;;;;;5072774;28;20024;-47
2021/05/08 07:21:45;;;;;;;4.22;4.03;;;21.70;97.60;;;;;;5072664;28;20111;-49
2021/05/08 07:24:12;;;;;;;3.67;3.40;;;21.60;97.10;;;;;;5072743;28;20035;-52
2021/05/08 07:26:39;;;;;;;4.13;3.92;;;21.50;96.90;;;;;;5072682;28;20021;-52
2021/05/08 07:29:06;;;;;;;5.38;5.00;;;21.60;96.80;;;;;;5072641;28;20016;-51
2021/05/08 07:31:34;;;;;;;4.25;3.85;;;21.50;97.20;;;;;;5072662;28;20031;-49
2021/05/08 07:34:02;;;;;;;3.80;3.50;;;21.40;96.60;;;;;;5072748;28;20024;-47
2021/05/08 07:36:30;;;;;;;3.35;3.15;;;21.40;96.90;;;;;;5073015;28;20385;-51
2021/05/08 07:38:57;;;;;;;3.60;3.40;;;21.30;96.90;;;;;;5071264;28;20029;-47
2021/05/08 07:41:25;;;;;;;3.78;3.47;;;21.20;97.20;;;;;;5072368;28;20040;-51
2021/05/08 07:43:53;;;;;;;3.88;3.67;;;21.20;97.20;;;;;;5072563;28;20024;-52
2021/05/08 07:46:20;;;;;;;4.43;4.13;;;21.10;98.70;;;;;;5072545;28;20028;-50
2021/05/08 07:48:48;;;;;;;4.00;3.80;;;20.80;99.40;;;;;;5072493;28;20044;-48
2021/05/08 07:51:18;;;;;;;4.15;3.85;;;20.70;99.30;;;;;;5072472;28;20040;-48
2021/05/08 07:53:45;;;;;;;4.78;4.47;;;20.60;99.30;;;;;;5072463;28;20040;-49
2021/05/08 07:56:13;;;;;;;4.60;4.20;;;20.70;98.20;;;;;;5072430;28;20024;-49
2021/05/08 07:58:40;;;;;;;4.32;4.03;;;20.80;97.70;;;;;;5072413;28;20059;-53
2021/05/08 08:01:07;;;;;;;4.47;4.18;;;20.90;97.60;;;;;;5070959;28;20032;-47
2021/05/08 08:03:35;;;;;;;4.30;4.00;;;21.00;97.70;;;;;;5072355;28;20098;-51
2021/05/08 08:06:03;;;;;;;4.50;4.10;;;21.00;97.50;;;;;;5070938;28;20024;-53
2021/05/08 08:08:30;;;;;;;5.10;4.60;;;21.10;96.90;;;;;;5072259;28;20032;-53
2021/05/08 08:10:58;;;;;;;4.45;4.07;;;21.10;98.20;;;;;;5072361;28;20023;-55
2021/05/08 08:13:26;;;;;;;8.40;7.70;;;21.00;97.00;;;;;;5072322;28;20025;-52
2021/05/08 08:15:53;;;;;;;7.32;6.72;;;21.00;97.40;;;;;;5072275;28;20483;-51
2021/05/08 08:18:22;;;;;;;7.05;6.45;;;21.00;97.50;;;;;;5073616;28;20392;-48
2021/05/08 08:20:49;;;;;;;5.82;5.43;;;20.90;97.30;;;;;;5076076;28;20147;-46
2021/05/08 08:23:17;;;;;;;6.00;5.50;;;20.90;97.30;;;;;;5076249;28;20496;-50
2021/05/08 08:25:44;;;;;;;5.90;5.50;;;20.90;97.60;;;;;;5076214;28;20031;-54
2021/05/08 08:28:11;;;;;;;5.07;4.78;;;20.70;98.00;;;;;;5074816;28;20388;-51
2021/05/08 08:30:39;;;;;;;5.93;5.43;;;20.60;97.90;;;;;;5076088;28;20043;-52
2021/05/08 08:33:06;;;;;;;5.95;5.45;;;20.60;97.80;;;;;;5075996;28;20021;-53
2021/05/08 08:35:34;;;;;;;6.00;5.50;;;20.50;98.10;;;;;;5075961;28;20028;-52
2021/05/08 08:38:01;;;;;;;5.57;5.15;;;20.40;99.20;;;;;;5075918;28;20029;-53
2021/05/08 08:40:29;;;;;;;6.35;5.85;;;20.30;99.80;;;;;;5075621;28;20103;-50
2021/05/08 08:42:57;;;;;;;6.40;5.90;;;20.30;99.70;;;;;;5075841;28;20511;-52
2021/05/08 08:45:24;;;;;;;7.57;6.88;;;20.20;99.90;;;;;;5075812;28;20039;-45
2021/05/08 08:47:52;;;;;;;9.15;8.35;;;20.10;99.90;;;;;;5076096;28;20028;-46
2021/05/08 08:50:20;;;;;;;10.40;9.00;;;20.00;99.90;;;;;;5075702;28;20017;-55
2021/05/08 08:52:48;;;;;;;9.20;8.35;;;19.90;99.90;;;;;;5075619;28;20036;-50
2021/05/08 08:55:15;;;;;;;9.02;8.13;;;19.80;99.90;;;;;;5075469;28;20103;-50
2021/05/08 08:57:45;;;;;;;7.03;6.45;;;19.60;99.90;;;;;;5075479;28;20460;-51
2021/05/08 09:00:18;;;;;;;6.38;5.93;;;19.50;99.90;;;;;;5075413;28;20031;-53
2021/05/08 09:02:48;;;;;;;7.00;6.30;;;19.50;99.90;;;;;;5075388;28;20032;-52
2021/05/08 09:05:18;;;;;;;7.10;6.50;;;19.40;99.90;;;;;;5075330;28;20545;-53
2021/05/08 09:07:48;;;;;;;6.17;5.77;;;19.30;99.90;;;;;;5075574;28;20452;-58
2021/05/08 09:10:30;;;;;;;7.70;7.00;;;19.30;99.90;;;;;;5075546;28;20264;-58
2021/05/08 09:13:04;;;;;;;7.65;7.05;;;19.20;99.90;;;;;;5075277;28;20025;-54
2021/05/08 09:15:37;;;;;;;6.05;5.65;;;19.10;99.90;;;;;;5075344;28;20103;-54
2021/05/08 09:18:07;;;;;;;6.70;6.10;;;19.10;99.90;;;;;;5075528;28;20028;-56
2021/05/08 09:20:48;;;;;;;7.78;7.20;;;18.90;99.90;;;;;;5075248;28;20021;-53
2021/05/08 09:23:23;;;;;;;7.78;7.10;;;18.90;99.90;;;;;;5075216;28;20036;-56
2021/05/08 09:26:11;;;;;;;7.25;6.75;;;18.80;99.90;;;;;;5075093;28;20067;-53
2021/05/08 09:28:40;;;;;;;7.40;6.75;;;18.80;99.90;;;;;;5075367;28;20468;-56
2021/05/08 09:31:12;;;;;;;7.03;6.47;;;18.80;99.90;;;;;;5074378;28;20090;-56
2021/05/08 09:33:40;;;;;;;6.90;6.40;;;18.70;99.90;;;;;;5074976;28;20032;-54
2021/05/08 09:36:10;;;;;;;7.78;7.18;;;18.70;99.90;;;;;;5074955;28;20028;-54
2021/05/08 09:38:42;;;;;;;7.30;6.80;;;18.80;99.90;;;;;;5075161;28;20111;-58
2021/05/08 09:41:15;;;;;;;7.78;6.97;;;18.70;99.90;;;;;;5074551;28;20049;-56
2021/05/08 09:43:44;;;;;;;7.68;7.18;;;18.70;99.90;;;;;;5074831;28;20035;-57
2021/05/08 09:46:28;;;;;;;8.02;7.45;;;18.70;99.90;;;;;;5074791;28;20028;-58
2021/05/08 09:49:16;;;;;;;7.28;6.78;;;18.80;99.90;;;;;;5074745;28;20056;-55
2021/05/08 09:51:44;;;;;;;7.53;6.90;;;18.70;99.90;;;;;;5074603;28;20032;-52
2021/05/08 09:54:12;;;;;;;7.53;6.95;;;18.70;99.90;;;;;;5074470;28;20554;-57
2021/05/08 09:56:48;;;;;;;7.93;7.28;;;18.80;99.90;;;;;;5074646;28;20371;-57
2021/05/08 09:59:32;;;;;;;7.57;6.88;;;18.70;99.90;;;;;;5074247;28;20510;-55
2021/05/08 10:02:03;;;;;;;7.32;6.93;;;18.80;99.90;;;;;;5074381;28;20035;-57
2021/05/08 10:04:57;;;;;;;6.22;5.72;;;18.70;99.90;;;;;;5074603;28;20507;-54
2021/05/08 10:07:29;;;;;;;6.22;5.78;;;18.70;99.90;;;;;;5074385;28;20454;-58
2021/05/08 10:09:58;;;;;;;6.50;6.00;;;18.70;99.90;;;;;;5074295;28;20031;-52
2021/05/08 10:12:28;;;;;;;7.05;6.35;;;18.80;99.90;;;;;;5074200;28;20039;-56
2021/05/08 10:14:57;;;;;;;6.50;6.10;;;18.90;99.90;;;;;;5074217;28;20032;-57
2021/05/08 10:17:29;;;;;;;7.30;6.78;;;18.80;99.90;;;;;;5074104;28;20016;-55
2021/05/08 10:20:08;;;;;;;6.53;6.03;;;18.70;99.90;;;;;;5074086;28;20050;-55
2021/05/08 10:22:43;;;;;;;6.30;5.60;;;18.70;99.90;;;;;;5073719;28;20032;-54
2021/05/08 10:25:11;;;;;;;6.57;6.15;;;18.60;99.90;;;;;;5072656;28;20024;-59
2021/05/08 10:27:38;;;;;;;5.95;5.55;;;18.50;99.90;;;;;;5073895;28;20032;-56
2021/05/08 10:30:13;;;;;;;5.63;5.22;;;18.50;99.90;;;;;;5073778;28;20074;-55
2021/05/08 10:32:44;;;;;;;6.25;5.80;;;18.50;99.90;;;;;;5073712;28;20032;-58
2021/05/08 10:35:13;;;;;;;6.90;6.13;;;18.40;99.90;;;;;;5073806;28;20380;-57
2021/05/08 10:38:01;;;;;;;6.57;5.97;;;18.50;99.90;;;;;;5073637;28;20100;-54
2021/05/08 10:40:28;;;;;;;7.55;5.80;;;18.60;99.90;;;;;;5062597;28;20064;-53
2021/05/08 10:42:56;;;;;;;6.45;5.85;;;18.60;99.90;;;;;;5071377;28;20040;-54
2021/05/08 10:45:23;;;;;;;6.40;5.80;;;18.60;99.90;;;;;;5073478;28;20016;-57
2021/05/08 10:47:58;;;;;;;6.03;5.53;;;18.60;99.90;;;;;;5073369;28;20066;-55
2021/05/08 10:50:28;;;;;;;5.95;5.55;;;18.80;99.90;;;;;;5073394;28;20058;-57
2021/05/08 10:53:15;;;;;;;5.80;5.40;;;18.70;99.90;;;;;;5073231;28;20445;-53
2021/05/08 10:56:00;;;;;;;5.55;5.00;;;18.80;99.90;;;;;;5073338;28;20048;-55
2021/05/08 10:58:32;;;;;;;5.97;5.53;;;18.80;99.90;;;;;;5073246;28;20111;-56
2021/05/08 11:01:12;;;;;;;5.72;5.43;;;18.80;99.90;;;;;;5073227;28;20021;-52
2021/05/08 11:03:48;;;;;;;6.40;5.82;;;18.90;99.90;;;;;;5073164;28;20385;-56
2021/05/08 11:06:17;;;;;;;5.85;5.40;;;18.90;99.90;;;;;;5073139;28;20101;-54
2021/05/08 11:08:49;;;;;;;5.72;5.22;;;18.80;99.90;;;;;;5072984;28;20024;-52
2021/05/08 11:11:23;;;;;;;6.22;5.63;;;18.80;99.90;;;;;;5073107;28;20024;-55
2021/05/08 11:13:54;;;;;;;6.35;5.95;;;18.70;99.90;;;;;;5073022;28;20520;-57
2021/05/08 11:16:28;;;;;;;6.60;6.10;;;18.70;99.90;;;;;;5072952;28;20052;-56
2021/05/08 11:18:58;;;;;;;7.05;6.65;;;18.60;99.90;;;;;;5072909;28;20056;-53
2021/05/08 11:21:30;;;;;;;6.68;6.07;;;18.50;99.90;;;;;;5072883;28;20024;-51
2021/05/08 11:24:09;;;;;;;6.63;6.20;;;18.50;99.90;;;;;;5072860;28;20078;-56
2021/05/08 11:26:40;;;;;;;6.50;6.10;;;18.40;99.90;;;;;;5072832;28;20025;-57
2021/05/08 11:29:25;;;;;;;6.63;6.07;;;18.30;99.90;;;;;;5072841;28;20028;-56
2021/05/08 11:31:57;;;;;;;6.18;5.70;;;18.30;99.90;;;;;;5072901;28;20056;-56
2021/05/08 11:34:32;;;;;;;6.75;6.25;;;18.30;99.90;;;;;;5072748;28;20389;-53
2021/05/08 11:37:08;;;;;;;7.10;6.40;;;18.30;99.90;;;;;;5072660;28;20540;-54
2021/05/08 11:39:37;;;;;;;7.35;6.82;;;18.20;99.90;;;;;;5072665;28;20035;-56
2021/05/08 11:42:23;;;;;;;7.00;6.40;;;18.20;99.90;;;;;;5072602;28;20036;-56
2021/05/08 11:44:58;;;;;;;6.80;6.10;;;18.10;99.90;;;;;;5072700;28;20107;-53
2021/05/08 11:47:35;;;;;;;7.30;6.70;;;18.10;99.90;;;;;;5072514;28;20025;-55
2021/05/08 11:50:14;;;;;;;6.68;6.15;;;18.10;99.90;;;;;;5072651;28;20055;-58
2021/05/08 11:52:54;;;;;;;7.63;7.05;;;18.00;99.90;;;;;;5072313;28;20078;-59
2021/05/08 11:55:23;;;;;;;;;;;18.00;99.90;;;;;;5072910;28;20106;-55
2021/05/08 11:57:58;;;;;;;7.32;6.82;;;18.00;99.90;;;;;;5072571;28;19943;-57
2021/05/08 12:00:27;;;;;;;7.32;6.82;;;18.00;99.90;;;;;;5072527;28;20039;-56
2021/05/08 12:03:12;;;;;;;7.90;6.68;;;18.00;99.90;;;;;;5072314;28;20146;-57
2021/05/08 12:05:42;;;;;;;7.80;7.20;;;18.00;99.90;;;;;;5072637;28;20017;-58
2021/05/08 12:08:14;;;;;;;6.32;5.82;;;18.00;99.90;;;;;;5072548;28;20020;-54
2021/05/08 12:10:44;;;;;;;6.70;6.10;;;18.10;99.90;;;;;;5072745;28;20024;-56
2021/05/08 12:13:12;;;;;;;5.82;5.53;;;18.10;99.90;;;;;;5072635;28;20048;-58
2021/05/08 12:15:51;;;;;;;7.20;6.60;;;18.00;99.90;;;;;;5072385;28;20025;-57
2021/05/08 12:18:20;;;;;;;7.50;6.90;;;18.00;99.90;;;;;;5071038;28;20036;-56
2021/05/08 12:20:50;;;;;;;6.38;5.88;;;18.00;99.90;;;;;;5072251;28;20079;-54
2021/05/08 12:23:18;;;;;;;6.70;6.18;;;18.00;99.90;;;;;;5072301;28;20392;-54
2021/05/08 12:26:19;;;;;;;7.03;6.50;;;17.90;99.90;;;;;;5072248;28;20024;-53
2021/05/08 12:28:46;;;;;;;6.47;6.05;;;17.90;99.90;;;;;;5072177;28;20021;-57
2021/05/08 12:31:29;;;;;;;7.13;6.72;;;17.90;99.90;;;;;;5072223;28;20017;-54
2021/05/08 12:33:59;;;;;;;6.90;6.47;;;17.80;99.90;;;;;;5072437;28;20082;-55
2021/05/08 12:36:27;;;;;;;7.37;6.87;;;17.80;99.90;;;;;;5072097;28;20032;-54
2021/05/08 12:38:54;;;;;;;7.20;6.80;;;17.80;99.90;;;;;;5071921;28;20277;-55
2021/05/08 12:41:30;;;;;;;7.20;6.60;;;17.80;99.90;;;;;;5071814;28;20041;-51
2021/05/08 12:44:12;;;;;;;7.30;6.80;;;17.80;99.90;;;;;;5072345;28;20157;-54
2021/05/08 12:47:04;;;;;;;7.85;7.15;;;17.80;99.90;;;;;;5072035;28;20048;-54
2021/05/08 12:49:36;;;;;;;7.70;7.20;;;17.80;99.90;;;;;;5072058;28;20051;-54
2021/05/08 12:52:23;;;;;;;7.22;6.60;;;17.90;99.90;;;;;;5072000;28;20021;-53
2021/05/08 12:54:51;;;;;;;7.07;6.60;;;17.80;99.90;;;;;;5072218;28;20032;-57
2021/05/08 12:57:19;;;;;;;7.90;7.20;;;17.80;99.90;;;;;;5072012;28;20025;-51
2021/05/08 13:00:01;;;;;;;7.38;6.80;;;17.80;99.90;;;;;;5071938;28;20021;-56